Matara, Argentina
Current Conditions -  °F | °C
As of 5:00 PM on Saturday 25 Oct 2014 (Local Time) from SANT Reporting Station
Clear Clear  
Wind Chill: 39°   Ceiling: Unl
Heat Index: 39°   Visibility: 4mi
Dew Point: 11°   Wind: 23mph
Humidity: 18%   Direction: 50°NE
Pressure: 29.71"   Gusts: NA
Location:  28.2°S, 63.14°W
Report Text: SANT 252000Z 05020KT 7000 NSC 39/11 Q1006
Loading
Personal Weather Stations






























Interactive Weather Map
Tropical Storm Tracking
New forecast layout! Learn more

10-Day Weather Forecast

Advertisements
Track Severe Weather on mobile